Time;durP1;ratioP1;P1;durP2;ratioP2;P2;SDS_P1;SDS_P2;PMS_P1;PMS_P2;Temp;Humidity;BMP_temperature;BMP_pressure;BME280_temperature;BME280_humidity;BME280_pressure;Samples;Min_cycle;Max_cycle;Signal;HPM_P1;HPM_P2
2022/09/27 02:03:27;;;;;;;11.05;1.05;;;;;;;-145.18;100.00;46668.22;6198228;22;20273;-86
2022/09/27 02:05:57;;;;;;;7.77;0.90;;;;;;;-145.18;100.00;46668.22;6186128;23;20487;-87
2022/09/27 02:08:44;;;;;;;11.80;1.67;;;;;;;-145.18;100.00;46670.16;6186481;23;20714;-86
2022/09/27 02:11:12;;;;;;;7.17;1.53;;;;;;;-145.18;100.00;46668.22;6214171;23;20226;-87
2022/09/27 02:13:56;;;;;;;12.30;1.47;;;;;;;-145.18;100.00;46668.22;6213048;23;20233;-87
2022/09/27 02:16:42;;;;;;;12.60;1.70;;;;;;;-145.18;100.00;46664.31;6187534;23;20643;-87
2022/09/27 02:19:49;;;;;;;10.52;1.20;;;;;;;-145.18;100.00;46660.41;6187009;23;20699;-87
2022/09/27 02:22:24;;;;;;;13.18;1.30;;;;;;;-145.18;100.00;46666.25;6213773;23;20008;-88
2022/09/27 02:24:57;;;;;;;8.02;1.65;;;;;;;-145.18;100.00;46664.31;6213088;23;20005;-85
2022/09/27 02:27:34;;;;;;;8.67;1.10;;;;;;;-145.18;100.00;46666.25;6213648;23;20000;-85
2022/09/27 02:30:09;;;;;;;16.47;1.60;;;;;;;-145.18;100.00;46668.22;6213899;23;20218;-85
2022/09/27 02:32:35;;;;;;;12.57;1.47;;;;;;;-145.18;100.00;46668.22;6213203;23;20273;-84
2022/09/27 02:35:06;;;;;;;14.47;1.53;;;;;;;-145.18;100.00;46664.31;6213980;23;20238;-84
2022/09/27 02:37:33;;;;;;;14.53;2.30;;;;;;;-145.18;100.00;46666.25;6213038;23;19996;-84
2022/09/27 02:39:59;;;;;;;7.53;1.00;;;;;;;-145.18;100.00;46666.25;6213901;23;20234;-85
2022/09/27 02:42:25;;;;;;;7.73;1.00;;;;;;;-145.18;100.00;46668.22;6213897;23;20210;-85
2022/09/27 02:44:51;;;;;;;8.63;1.33;;;;;;;-145.18;100.00;46666.25;6213660;23;20247;-87
2022/09/27 02:47:43;;;;;;;8.40;1.10;;;;;;;-145.18;100.00;46668.22;6213033;23;20270;-86
2022/09/27 02:50:25;;;;;;;9.87;1.53;;;;;;;-145.18;100.00;46662.34;6213413;23;20513;-86
2022/09/27 02:52:58;;;;;;;14.33;1.37;;;;;;;-145.18;100.00;46668.22;6213119;23;20301;-85
2022/09/27 02:55:30;;;;;;;13.80;1.73;;;;;;;-145.18;100.00;46666.25;6213965;23;20551;-85
2022/09/27 02:58:26;;;;;;;10.10;0.97;;;;;;;-145.18;100.00;46670.16;6213006;23;20226;-85
2022/09/27 03:01:13;;;;;;;8.45;1.30;;;;;;;-145.18;100.00;46666.25;6186417;23;20238;-85
2022/09/27 03:03:56;;;;;;;4.70;0.80;;;;;;;-145.18;100.00;46662.34;6182754;23;20017;-86
2022/09/27 03:06:23;;;;;;;9.30;1.93;;;;;;;-145.18;100.00;46660.41;6183533;23;20242;-86
2022/09/27 03:08:49;;;;;;;4.70;0.77;;;;;;;-145.18;100.00;46670.16;6183193;23;20767;-89
2022/09/27 03:11:15;;;;;;;7.20;1.77;;;;;;;-145.18;100.00;46670.16;6157549;23;20227;-87
2022/09/27 03:13:42;;;;;;;5.60;0.77;;;;;;;-145.18;100.00;46670.16;6182700;23;20619;-86
2022/09/27 03:16:08;;;;;;;2.30;0.50;;;;;;;-145.18;100.00;46668.22;6183334;23;20083;-84
2022/09/27 03:18:33;;;;;;;8.47;0.97;;;;;;;-145.18;100.00;46668.22;6182445;23;20265;-81
2022/09/27 03:20:58;;;;;;;7.00;1.20;;;;;;;-145.18;100.00;46674.06;6182778;23;20009;-82
2022/09/27 03:23:24;;;;;;;10.17;1.10;;;;;;;-145.18;100.00;46664.31;6182498;23;20005;-83
2022/09/27 03:25:50;;;;;;;10.77;1.00;;;;;;;-145.18;100.00;46672.13;6182576;23;20080;-81
2022/09/27 03:28:16;;;;;;;10.67;1.00;;;;;;;-145.18;100.00;46672.13;6182548;23;20002;-80
2022/09/27 03:30:44;;;;;;;12.90;1.00;;;;;;;-145.18;100.00;46666.25;6182691;23;20282;-81
2022/09/27 03:33:09;;;;;;;8.77;1.53;;;;;;;-145.18;100.00;46672.13;6182281;23;20242;-82
2022/09/27 03:35:36;;;;;;;10.17;1.40;;;;;;;-145.18;100.00;46668.22;6182292;23;20262;-84
2022/09/27 03:38:01;;;;;;;7.10;1.23;;;;;;;-145.18;100.00;46664.31;6182622;23;20423;-83
2022/09/27 03:40:26;;;;;;;5.97;1.13;;;;;;;-145.18;100.00;46672.13;6182529;23;20242;-82
2022/09/27 03:42:52;;;;;;;7.60;1.37;;;;;;;-145.18;100.00;46660.41;6181966;23;20370;-82
2022/09/27 03:45:17;;;;;;;6.63;0.60;;;;;;;-145.18;100.00;46670.16;6182504;23;20036;-83
2022/09/27 03:47:43;;;;;;;12.37;1.20;;;;;;;-145.18;100.00;46670.16;6182179;23;20009;-84
2022/09/27 03:50:10;;;;;;;9.50;1.50;;;;;;;-145.18;100.00;46668.22;6182676;23;20005;-83
2022/09/27 03:52:36;;;;;;;5.60;0.90;;;;;;;-145.18;100.00;46664.31;6182118;23;20013;-81
2022/09/27 03:55:02;;;;;;;8.80;1.07;;;;;;;-145.18;100.00;46664.31;6182731;23;20237;-81
2022/09/27 03:57:29;;;;;;;9.93;2.20;;;;;;;-145.18;100.00;46662.34;6181996;23;20005;-81
2022/09/27 03:59:55;;;;;;;12.07;1.97;;;;;;;-145.18;100.00;46664.31;6182660;23;20413;-81
2022/09/27 04:02:20;;;;;;;8.27;1.40;;;;;;;-145.18;100.00;46668.22;6181779;23;20251;-82
2022/09/27 04:04:46;;;;;;;11.10;2.27;;;;;;;-145.18;100.00;46666.25;6182613;23;20013;-83
2022/09/27 04:07:12;;;;;;;6.53;1.47;;;;;;;-145.18;100.00;46660.41;6182357;23;20047;-82
2022/09/27 04:09:37;;;;;;;14.70;2.80;;;;;;;-145.18;100.00;46662.34;6156313;23;20243;-82
2022/09/27 04:12:04;;;;;;;3.17;0.87;;;;;;;-145.18;100.00;46658.44;6156449;23;20342;-81
2022/09/27 04:14:29;;;;;;;9.30;1.47;;;;;;;-145.18;100.00;46664.31;6182838;23;20009;-81
2022/09/27 04:16:54;;;;;;;3.93;0.80;;;;;;;-145.18;100.00;46664.31;6182213;23;20599;-81
2022/09/27 04:19:20;;;;;;;9.80;1.33;;;;;;;-145.18;100.00;46664.31;6156048;23;20370;-83
2022/09/27 04:21:45;;;;;;;5.73;0.70;;;;;;;-145.18;100.00;46662.34;6155955;23;20005;-86
2022/09/27 04:24:11;;;;;;;6.63;0.80;;;;;;;-145.18;100.00;46658.44;6181872;23;20008;-86
2022/09/27 04:26:36;;;;;;;7.70;1.13;;;;;;;-145.18;100.00;46664.31;6156254;23;20029;-83
2022/09/27 04:29:02;;;;;;;3.80;0.90;;;;;;;-145.18;100.00;46662.34;6182583;23;20035;-80
2022/09/27 04:31:28;;;;;;;8.73;0.93;;;;;;;-145.18;100.00;46664.31;6182741;23;20071;-80
2022/09/27 04:33:54;;;;;;;6.40;1.10;;;;;;;-145.18;100.00;46656.50;6181849;23;20020;-80
2022/09/27 04:36:28;;;;;;;5.50;0.77;;;;;;;-145.18;100.00;46662.34;6181573;23;20036;-80
2022/09/27 04:38:59;;;;;;;5.13;0.70;;;;;;;-145.18;100.00;46656.50;6180614;23;20040;-81
2022/09/27 04:41:25;;;;;;;6.30;0.70;;;;;;;-145.18;100.00;46656.50;6182001;23;20223;-80
2022/09/27 04:43:51;;;;;;;6.00;0.90;;;;;;;-145.18;100.00;46654.53;6181387;23;20239;-79
2022/09/27 04:46:17;;;;;;;5.30;0.70;;;;;;;-145.18;100.00;46662.34;6181836;23;20553;-79
2022/09/27 04:48:42;;;;;;;5.73;0.73;;;;;;;-145.18;100.00;46656.50;6181637;23;19997;-79
2022/09/27 04:51:08;;;;;;;5.07;1.10;;;;;;;-145.18;100.00;46660.41;6183361;23;20116;-78
2022/09/27 04:53:34;;;;;;;4.80;1.03;;;;;;;-145.18;100.00;46656.50;6182644;23;20020;-78
2022/09/27 04:56:04;;;;;;;7.33;1.00;;;;;;;-145.18;100.00;46660.41;6180977;23;20223;-79
2022/09/27 04:58:30;;;;;;;4.13;0.70;;;;;;;-145.18;100.00;46656.50;6183630;23;20092;-79
2022/09/27 05:00:55;;;;;;;3.93;0.73;;;;;;;-145.18;100.00;46654.53;6183527;23;20807;-79
2022/09/27 05:03:21;;;;;;;7.70;2.23;;;;;;;-145.18;100.00;46654.53;6183692;23;20027;-79
2022/09/27 05:05:47;;;;;;;7.43;1.53;;;;;;;-145.18;100.00;46656.50;6184013;23;20013;-78
2022/09/27 05:08:12;;;;;;;5.87;2.13;;;;;;;-145.18;100.00;46656.50;6183619;23;20246;-77
2022/09/27 05:10:38;;;;;;;20.20;4.70;;;;;;;-145.18;100.00;46654.53;6183012;23;20005;-76
2022/09/27 05:13:04;;;;;;;10.60;3.07;;;;;;;-145.18;100.00;46656.50;6183412;23;20084;-77
2022/09/27 05:15:29;;;;;;;13.87;4.10;;;;;;;-145.18;100.00;46658.44;6184078;23;20020;-78
2022/09/27 05:17:54;;;;;;;14.00;4.23;;;;;;;-145.18;100.00;46652.59;6183642;23;20020;-79
2022/09/27 05:20:20;;;;;;;12.20;3.30;;;;;;;-145.18;100.00;46656.50;6185049;23;20009;-81
2022/09/27 05:22:46;;;;;;;15.33;4.40;;;;;;;-145.18;100.00;46660.41;6183991;23;20045;-79
2022/09/27 05:25:11;;;;;;;7.20;2.13;;;;;;;-145.18;100.00;46656.50;6183893;23;20009;-79
2022/09/27 05:27:37;;;;;;;6.70;1.10;;;;;;;-145.18;100.00;46648.69;6183523;23;20005;-78
2022/09/27 05:30:03;;;;;;;11.73;2.67;;;;;;;-145.18;100.00;46652.59;6183273;23;20013;-76
2022/09/27 05:32:28;;;;;;;14.03;4.53;;;;;;;-145.18;100.00;46658.44;6182762;23;20020;-78
2022/09/27 05:34:54;;;;;;;12.27;3.30;;;;;;;-145.18;100.00;46656.50;6183088;23;20247;-78
2022/09/27 05:37:20;;;;;;;6.30;1.30;;;;;;;-145.18;100.00;46654.53;6183940;23;20343;-81
2022/09/27 05:39:46;;;;;;;4.53;0.90;;;;;;;-145.18;100.00;46660.41;6183277;23;20028;-77
2022/09/27 05:42:14;;;;;;;4.93;0.80;;;;;;;-145.18;100.00;46656.50;6157561;23;20041;-78
2022/09/27 05:44:40;;;;;;;4.20;0.80;;;;;;;-145.18;100.00;46654.53;6182618;23;20124;-77
2022/09/27 05:47:06;;;;;;;5.13;1.33;;;;;;;-145.18;100.00;46654.53;6184213;23;20267;-77
2022/09/27 05:49:32;;;;;;;10.60;2.97;;;;;;;-145.18;100.00;46652.59;6183314;23;20012;-77
2022/09/27 05:51:58;;;;;;;7.93;2.23;;;;;;;-145.18;100.00;46652.59;6183186;23;20005;-78
2022/09/27 05:54:23;;;;;;;9.10;2.57;;;;;;;-145.18;100.00;46658.44;6178890;23;20005;-79
2022/09/27 05:56:50;;;;;;;7.53;1.40;;;;;;;-145.18;100.00;46658.44;6182942;23;20774;-77
2022/09/27 05:59:15;;;;;;;6.07;1.07;;;;;;;-145.18;100.00;46658.44;6182908;23;20013;-77
2022/09/27 06:01:40;;;;;;;4.70;1.30;;;;;;;-145.18;100.00;46652.59;6182493;23;20378;-77
2022/09/27 06:04:06;;;;;;;6.43;1.30;;;;;;;-145.18;100.00;46652.59;6182902;23;20357;-76
2022/09/27 06:06:35;;;;;;;3.93;1.40;;;;;;;-145.18;100.00;46656.50;6182650;23;20100;-77
2022/09/27 06:09:01;;;;;;;7.47;1.40;;;;;;;-145.18;100.00;46650.63;6182590;23;20402;-76
2022/09/27 06:11:26;;;;;;;4.80;1.43;;;;;;;-145.18;100.00;46660.41;6183001;23;20298;-76
2022/09/27 06:13:52;;;;;;;9.10;3.23;;;;;;;-145.18;100.00;46650.63;6182118;23;20254;-77
2022/09/27 06:16:17;;;;;;;7.97;3.90;;;;;;;-145.18;100.00;46658.44;6155501;23;20036;-77
2022/09/27 06:18:43;;;;;;;10.63;4.57;;;;;;;-145.18;100.00;46652.59;6181760;23;20028;-77
2022/09/27 06:21:08;;;;;;;6.00;2.80;;;;;;;-145.18;100.00;46656.50;6132457;23;20060;-77
2022/09/27 06:23:34;;;;;;;12.03;4.83;;;;;;;-145.18;100.00;46652.59;6155917;23;20375;-77
2022/09/27 06:26:05;;;;;;;8.13;3.60;;;;;;;-145.18;100.00;46656.50;6182719;23;20020;-77
2022/09/27 06:28:34;;;;;;;12.10;3.77;;;;;;;-145.18;100.00;46656.50;6182939;23;20219;-78
2022/09/27 06:30:59;;;;;;;10.20;2.87;;;;;;;-145.18;100.00;46652.59;6183589;23;20226;-79
2022/09/27 06:33:27;;;;;;;4.77;1.73;;;;;;;-145.18;100.00;46656.50;6179917;23;20672;-78
2022/09/27 06:35:52;;;;;;;6.13;2.63;;;;;;;-145.18;100.00;46650.63;6180977;23;20008;-79
2022/09/27 06:38:20;;;;;;;8.03;3.50;;;;;;;-145.18;100.00;46658.44;6180178;23;20336;-79
2022/09/27 06:40:46;;;;;;;12.67;4.20;;;;;;;-145.18;100.00;46660.41;6182555;23;20040;-79
2022/09/27 06:43:13;;;;;;;9.77;3.37;;;;;;;-145.18;100.00;46654.53;6180321;23;20325;-78
2022/09/27 06:45:39;;;;;;;9.40;2.47;;;;;;;-145.18;100.00;46656.50;6182045;23;20079;-78
2022/09/27 06:48:06;;;;;;;8.10;2.37;;;;;;;-145.18;100.00;46652.59;6181055;23;20341;-77
2022/09/27 06:50:34;;;;;;;5.27;1.83;;;;;;;-145.18;100.00;46652.59;6182638;23;20008;-77
2022/09/27 06:53:00;;;;;;;9.80;2.67;;;;;;;-145.18;100.00;46656.50;6182039;23;20538;-77
2022/09/27 06:55:26;;;;;;;8.53;2.80;;;;;;;-145.18;100.00;46656.50;6182322;23;20234;-78
2022/09/27 07:00:46;;;;;;;11.47;3.10;;;;;;;-145.18;100.00;46658.44;6182064;23;20040;-78
2022/09/27 07:03:13;;;;;;;8.43;3.03;;;;;;;-145.18;100.00;46652.59;6181797;23;20247;-78
2022/09/27 07:05:40;;;;;;;8.30;3.10;;;;;;;-145.18;100.00;46656.50;6156347;23;20397;-78
2022/09/27 07:08:06;;;;;;;11.07;4.30;;;;;;;-145.18;100.00;46656.50;6156138;23;20235;-78
2022/09/27 07:10:34;;;;;;;13.70;4.33;;;;;;;-145.18;100.00;46660.41;6180404;23;20231;-78
2022/09/27 07:13:07;;;;;;;4.07;2.10;;;;;;;-145.18;100.00;46652.59;6182164;23;20012;-78
2022/09/27 07:15:39;;;;;;;12.33;3.47;;;;;;;-145.18;100.00;46654.53;6181934;23;20227;-79
2022/09/27 07:18:05;;;;;;;7.57;2.83;;;;;;;-145.18;100.00;46654.53;6181759;23;20510;-78
2022/09/27 07:20:32;;;;;;;5.47;2.37;;;;;;;-145.18;100.00;46652.59;6180520;23;20239;-78
2022/09/27 07:22:58;;;;;;;11.60;2.43;;;;;;;-145.18;100.00;46650.63;6180035;23;20227;-78
2022/09/27 07:25:24;;;;;;;6.17;1.50;;;;;;;-145.18;100.00;46656.50;6181933;23;20243;-78
2022/09/27 07:27:53;;;;;;;12.00;3.20;;;;;;;-145.18;100.00;46656.50;6182247;23;20009;-78
2022/09/27 07:30:20;;;;;;;8.17;2.20;;;;;;;-145.18;100.00;46660.41;6181581;23;20239;-78
2022/09/27 07:32:45;;;;;;;7.67;2.90;;;;;;;-145.18;100.00;46660.41;6182579;23;20227;-79
2022/09/27 07:35:13;;;;;;;11.87;2.13;;;;;;;-145.18;100.00;46654.53;6182199;23;20239;-78
2022/09/27 07:37:39;;;;;;;8.17;3.43;;;;;;;-145.18;100.00;46654.53;6182149;23;20060;-79
2022/09/27 07:40:08;;;;;;;6.40;2.20;;;;;;;-145.18;100.00;46660.41;6155886;23;20608;-79
2022/09/27 07:42:36;;;;;;;10.63;3.23;;;;;;;-145.18;100.00;46664.31;6182945;23;19997;-79
2022/09/27 07:45:02;;;;;;;9.27;2.07;;;;;;;-145.18;100.00;46660.41;6182111;23;20321;-79
2022/09/27 07:47:29;;;;;;;12.67;4.27;;;;;;;-145.18;100.00;46656.50;6179118;23;20251;-78
2022/09/27 07:49:54;;;;;;;8.77;3.20;;;;;;;-145.18;100.00;46654.53;6181855;23;20273;-77
2022/09/27 07:52:20;;;;;;;8.40;4.03;;;;;;;-145.18;100.00;46658.44;6182432;23;20231;-77
2022/09/27 07:54:46;;;;;;;8.87;3.30;;;;;;;-145.18;100.00;46660.41;6155255;23;20009;-76
2022/09/27 07:57:12;;;;;;;5.67;2.57;;;;;;;-145.18;100.00;46662.34;6182319;23;20059;-78
2022/09/27 07:59:38;;;;;;;8.13;2.70;;;;;;;-145.18;100.00;46660.41;6181811;23;20005;-78
2022/09/27 08:02:03;;;;;;;8.60;3.10;;;;;;;-145.18;100.00;46660.41;6181540;23;20273;-78
2022/09/27 08:04:29;;;;;;;6.93;2.73;;;;;;;-145.18;100.00;46660.41;6181667;23;20009;-78
2022/09/27 08:06:54;;;;;;;7.93;1.70;;;;;;;-145.18;100.00;46660.41;6182145;23;20033;-79
2022/09/27 08:09:20;;;;;;;8.20;2.07;;;;;;;-145.18;100.00;46660.41;6181893;23;20005;-78
2022/09/27 08:11:45;;;;;;;4.50;2.10;;;;;;;-145.18;100.00;46666.25;6181849;23;20432;-77
2022/09/27 08:14:11;;;;;;;10.37;2.80;;;;;;;-145.18;100.00;46662.34;6181309;23;20020;-77
2022/09/27 08:16:36;;;;;;;5.37;2.17;;;;;;;-145.18;100.00;46660.41;6181637;23;20008;-76
2022/09/27 08:19:02;;;;;;;8.90;2.40;;;;;;;-145.18;100.00;46662.34;6181223;23;20005;-78
2022/09/27 08:21:29;;;;;;;8.00;2.37;;;;;;;-145.18;100.00;46660.41;6181919;23;20404;-77
2022/09/27 08:23:55;;;;;;;8.70;2.03;;;;;;;-145.18;100.00;46660.41;6182948;23;20063;-77
2022/09/27 08:26:20;;;;;;;7.03;2.33;;;;;;;-145.18;100.00;46658.44;6183798;23;20345;-77
2022/09/27 08:28:47;;;;;;;6.83;2.10;;;;;;;-145.18;100.00;46658.44;6183288;23;20009;-78
2022/09/27 08:31:12;;;;;;;10.90;3.37;;;;;;;-145.18;100.00;46656.50;6184290;23;20013;-79
2022/09/27 08:33:38;;;;;;;11.40;3.50;;;;;;;-145.18;100.00;46656.50;6183589;23;20318;-79
2022/09/27 08:36:03;;;;;;;5.07;1.80;;;;;;;-145.18;100.00;46654.53;6183880;23;20197;-79
2022/09/27 08:38:29;;;;;;;5.67;2.23;;;;;;;-145.18;100.00;46654.53;6183198;23;20013;-79
2022/09/27 08:41:08;;;;;;;3.87;0.93;;;;;;;-145.18;100.00;46658.44;6183530;23;20334;-80
2022/09/27 08:43:45;;;;;;;8.43;4.03;;;;;;;-145.18;100.00;46658.44;6183047;23;20422;-80
2022/09/27 08:46:13;;;;;;;4.57;1.20;;;;;;;-145.18;100.00;46660.41;6183877;23;20327;-80
2022/09/27 08:48:39;;;;;;;4.43;1.00;;;;;;;-145.18;100.00;46658.44;6182088;23;20004;-80
2022/09/27 08:51:10;;;;;;;8.60;1.33;;;;;;;-145.18;100.00;46660.41;6184025;23;20012;-79
2022/09/27 08:54:18;;;;;;;2.53;0.60;;;;;;;-145.18;100.00;46660.41;6183110;23;20004;-81
2022/09/27 08:56:46;;;;;;;4.27;0.83;;;;;;;-145.18;100.00;46666.25;6122220;23;20021;-83
2022/09/27 08:59:22;;;;;;;6.30;0.70;;;;;;;-145.18;100.00;46660.41;6175887;23;20008;-82
2022/09/27 09:01:49;;;;;;;6.20;0.70;;;;;;;-145.18;100.00;46664.31;6183269;23;20342;-82
2022/09/27 09:04:24;;;;;;;5.90;0.67;;;;;;;-145.18;100.00;46668.22;6152220;23;20005;-83
2022/09/27 09:06:58;;;;;;;5.57;1.38;;;;;;;-145.18;100.00;46660.41;6152091;23;20056;-83
2022/09/27 09:09:27;;;;;;;6.03;0.73;;;;;;;-145.18;100.00;46674.06;6151431;23;20030;-83
2022/09/27 09:15:22;;;;;;;5.93;0.73;;;;;;;-145.18;100.00;46664.31;6151836;23;20024;-84
2022/09/27 09:18:10;;;;;;;12.00;1.00;;;;;;;-145.18;100.00;46668.22;6153701;23;20006;-84
2022/09/27 09:20:48;;;;;;;6.33;1.37;;;;;;;-145.18;100.00;46674.06;6152950;23;20006;-80
2022/09/27 09:23:35;;;;;;;2.67;0.70;;;;;;;-145.18;100.00;46662.34;6152432;23;20013;-78
2022/09/27 09:26:19;;;;;;;4.57;0.80;;;;;;;-145.18;100.00;46674.06;6153504;23;20674;-78
2022/09/27 09:29:16;;;;;;;4.50;0.80;;;;;;;-145.18;100.00;46672.13;6152863;23;20009;-80
2022/09/27 09:31:57;;;;;;;6.13;0.70;;;;;;;-145.18;100.00;46670.16;6132001;23;20239;-78
2022/09/27 09:34:24;;;;;;;3.43;0.67;;;;;;;-145.18;100.00;46676.03;6152675;23;20676;-79
2022/09/27 09:37:07;;;;;;;5.37;1.10;;;;;;;-145.18;100.00;46677.97;6151384;23;20240;-79
2022/09/27 09:39:47;;;;;;;8.73;0.67;;;;;;;-145.18;100.00;46674.06;6151020;23;20581;-79
2022/09/27 09:42:28;;;;;;;5.13;0.70;;;;;;;-145.18;100.00;46679.94;6152528;23;20242;-79
2022/09/27 09:45:19;;;;;;;6.27;0.90;;;;;;;-145.18;100.00;46676.03;6152721;23;20565;-79
2022/09/27 09:47:51;;;;;;;13.27;3.90;;;;;;;-145.18;100.00;46677.97;6145822;23;20509;-79
2022/09/27 09:50:25;;;;;;;6.43;3.13;;;;;;;-145.18;100.00;46672.13;6152886;23;20335;-81
2022/09/27 09:52:58;;;;;;;4.00;1.90;;;;;;;-145.18;100.00;46677.97;6153279;23;19997;-78
2022/09/27 09:55:27;;;;;;;4.83;1.43;;;;;;;-145.18;100.00;46677.97;6152550;23;20678;-79
2022/09/27 09:58:02;;;;;;;6.33;1.93;;;;;;;-145.18;100.00;46674.06;6152589;23;20534;-78
2022/09/27 10:00:27;;;;;;;4.10;1.27;;;;;;;-145.18;100.00;46674.06;6153068;23;20002;-78
2022/09/27 10:02:56;;;;;;;7.87;0.90;;;;;;;-145.18;100.00;46681.88;6164561;23;20073;-77
2022/09/27 10:05:25;;;;;;;7.23;3.07;;;;;;;-145.18;100.00;46672.13;6156635;23;20013;-78
2022/09/27 10:07:55;;;;;;;8.60;2.63;;;;;;;-145.18;100.00;46679.94;6156592;23;20005;-78
2022/09/27 10:10:21;;;;;;;5.60;1.47;;;;;;;-145.18;100.00;46676.03;6183125;23;20219;-78
2022/09/27 10:12:47;;;;;;;7.33;1.50;;;;;;;-145.18;100.00;46676.03;6156860;23;20538;-79
2022/09/27 10:15:26;;;;;;;5.97;1.33;;;;;;;-145.18;100.00;46676.03;6182672;23;20063;-80
2022/09/27 10:17:58;;;;;;;7.27;2.93;;;;;;;-145.18;100.00;46676.03;6182299;23;20223;-80
2022/09/27 10:20:45;;;;;;;8.90;2.70;;;;;;;-145.18;100.00;46676.03;6182230;23;20314;-80
2022/09/27 10:23:14;;;;;;;4.60;0.90;;;;;;;-145.18;100.00;46676.03;6182493;23;20235;-81
2022/09/27 10:25:57;;;;;;;4.37;1.07;;;;;;;-145.18;100.00;46674.06;6182567;23;20333;-81
2022/09/27 10:28:33;;;;;;;8.57;1.70;;;;;;;-145.18;100.00;46676.03;6182589;23;20740;-80
2022/09/27 10:31:02;;;;;;;5.75;1.00;;;;;;;-145.18;100.00;46676.03;6182972;23;20227;-79
2022/09/27 10:33:29;;;;;;;4.20;0.93;;;;;;;-145.18;100.00;46681.88;6182601;23;20016;-78
2022/09/27 10:35:55;;;;;;;4.90;0.80;;;;;;;-145.18;100.00;46674.06;6183279;23;20016;-77
2022/09/27 10:38:30;;;;;;;5.60;0.80;;;;;;;-145.18;100.00;46676.03;6183244;23;20695;-77
2022/09/27 10:41:22;;;;;;;5.93;1.17;;;;;;;-145.18;100.00;46676.03;6182451;23;20026;-78
2022/09/27 10:43:47;;;;;;;4.27;1.20;;;;;;;-145.18;100.00;46676.03;6182554;23;20755;-78
2022/09/27 10:46:13;;;;;;;4.37;0.67;;;;;;;-145.18;100.00;46676.03;6182374;23;20254;-78
2022/09/27 10:48:41;;;;;;;2.60;0.67;;;;;;;-145.18;100.00;46674.06;6182614;23;20059;-78
2022/09/27 10:51:21;;;;;;;1.20;0.50;;;;;;;-145.18;100.00;46674.06;6182711;23;20346;-78
2022/09/27 10:53:47;;;;;;;3.60;0.50;;;;;;;-145.18;100.00;46674.06;6180660;23;20708;-79
2022/09/27 10:56:30;;;;;;;3.20;0.50;;;;;;;-145.18;100.00;46676.03;6183042;23;20233;-79
2022/09/27 10:58:58;;;;;;;6.10;0.63;;;;;;;-145.18;100.00;46679.94;6181851;23;20434;-79
2022/09/27 11:01:25;;;;;;;2.97;0.60;;;;;;;-145.18;100.00;46677.97;6182687;23;20225;-79
2022/09/27 11:03:55;;;;;;;2.77;0.50;;;;;;;-145.18;100.00;46677.97;6181995;23;20246;-79
2022/09/27 11:06:23;;;;;;;1.87;0.50;;;;;;;-145.18;100.00;46677.97;6183180;23;20247;-80
2022/09/27 11:08:54;;;;;;;2.93;0.60;;;;;;;-145.18;100.00;46676.03;6182187;23;20259;-80
2022/09/27 11:11:24;;;;;;;4.97;0.60;;;;;;;-145.18;100.00;46672.13;6182796;23;20231;-79
2022/09/27 11:14:16;;;;;;;2.97;0.60;;;;;;;-145.18;100.00;46676.03;6181923;23;20235;-80
2022/09/27 11:17:00;;;;;;;3.63;0.73;;;;;;;-145.18;100.00;46679.94;6179722;23;20230;-79
2022/09/27 11:19:52;;;;;;;1.90;0.77;;;;;;;-145.18;100.00;46674.06;6181729;23;20227;-79
2022/09/27 11:22:27;;;;;;;3.90;1.07;;;;;;;-145.18;100.00;46674.06;6182674;23;20560;-79
2022/09/27 11:24:55;;;;;;;;;;;;;;;-145.18;100.00;46672.13;6180803;23;20227;-79
2022/09/27 11:27:45;;;;;;;2.73;0.70;;;;;;;-145.18;100.00;46676.03;6180926;23;19915;-79
2022/09/27 11:30:16;;;;;;;4.33;0.80;;;;;;;-145.18;100.00;46676.03;6181671;23;20258;-79
2022/09/27 11:32:56;;;;;;;4.10;1.30;;;;;;;-145.18;100.00;46677.97;6181926;23;20223;-78
2022/09/27 11:36:16;;;;;;;1.97;0.60;;;;;;;-145.18;100.00;46674.06;6181679;23;20254;-78
2022/09/27 11:39:04;;;;;;;1.90;0.40;;;;;;;-145.18;100.00;46676.03;6127682;23;20228;-77
2022/09/27 11:41:34;;;;;;;2.17;0.50;;;;;;;-145.18;100.00;46674.06;6181601;23;20269;-78
2022/09/27 11:44:37;;;;;;;0.70;0.40;;;;;;;-145.18;100.00;46674.06;6181676;23;20223;-79
2022/09/27 11:47:10;;;;;;;1.83;0.63;;;;;;;-145.18;100.00;46676.03;6182033;23;20320;-79
2022/09/27 11:49:54;;;;;;;3.07;0.60;;;;;;;-145.18;100.00;46674.06;6181631;23;20302;-78
2022/09/27 11:52:51;;;;;;;1.20;0.50;;;;;;;-145.18;100.00;46679.94;6182161;23;20688;-78
2022/09/27 11:55:45;;;;;;;25.00;15.47;;;;;;;-145.18;100.00;46676.03;6161985;23;20924;-78
2022/09/27 11:58:58;;;;;;;5.93;3.70;;;;;;;-145.18;100.00;46677.97;6180907;23;20292;-79
2022/09/27 12:02:00;;;;;;;8.97;6.03;;;;;;;-145.18;100.00;46674.06;6163631;23;20545;-81
2022/09/27 12:04:58;;;;;;;3.73;1.43;;;;;;;-145.18;100.00;46677.97;6180955;23;20017;-81
2022/09/27 12:07:32;;;;;;;3.13;2.10;;;;;;;-145.18;100.00;46677.97;6159703;23;20497;-81
2022/09/27 12:10:03;;;;;;;3.83;0.60;;;;;;;-145.18;100.00;46681.88;6181033;23;20315;-83
2022/09/27 12:12:34;;;;;;;5.23;2.80;;;;;;;-145.18;100.00;46679.94;6182460;23;20056;-84
2022/09/27 12:15:05;;;;;;;4.03;2.23;;;;;;;-145.18;100.00;46683.84;6181563;23;20243;-85
2022/09/27 12:17:42;;;;;;;3.70;0.80;;;;;;;-145.18;100.00;46681.88;6182629;23;20071;-84
2022/09/27 12:20:43;;;;;;;2.90;0.90;;;;;;;-145.18;100.00;46683.84;6182478;23;20040;-84
2022/09/27 12:23:38;;;;;;;1.37;0.50;;;;;;;-145.18;100.00;46689.69;6119725;23;20451;-84
2022/09/27 12:26:08;;;;;;;1.13;0.57;;;;;;;-145.18;100.00;46691.66;6180862;23;20013;-84
2022/09/27 12:28:39;;;;;;;1.83;0.80;;;;;;;-145.18;100.00;46691.66;6183167;23;20027;-85
2022/09/27 12:31:17;;;;;;;1.33;0.50;;;;;;;-145.18;100.00;46693.59;6181713;23;20084;-86
2022/09/27 12:34:08;;;;;;;3.33;1.03;;;;;;;-145.18;100.00;46693.59;6182372;23;20009;-85
2022/09/27 12:36:42;;;;;;;1.67;0.53;;;;;;;-145.18;100.00;46697.50;6182569;23;20011;-85
2022/09/27 12:39:22;;;;;;;3.70;0.63;;;;;;;-145.18;100.00;46689.69;6182140;23;20783;-86
2022/09/27 12:42:00;;;;;;;1.20;0.50;;;;;;;-145.18;100.00;46685.78;6182319;23;20442;-85
2022/09/27 12:44:30;;;;;;;1.50;0.40;;;;;;;-145.18;100.00;46681.88;6181740;23;20012;-85
2022/09/27 12:47:25;;;;;;;2.00;0.40;;;;;;;-145.18;100.00;46664.31;6182434;23;20036;-86
2022/09/27 12:50:16;;;;;;;1.77;0.50;;;;;;;-145.18;100.00;46664.31;6138761;23;20013;-85
2022/09/27 12:52:52;;;;;;;2.40;0.60;;;;;;;-145.18;100.00;46615.47;6182471;23;20005;-85
2022/09/27 12:55:40;;;;;;;4.47;0.60;;;;;;;-145.18;100.00;46599.84;6181646;23;20517;-85
2022/09/27 12:58:37;;;;;;;1.37;0.80;;;;;;;-145.18;100.00;46570.53;6182262;23;20067;-86
2022/09/27 13:01:12;;;;;;;2.20;0.68;;;;;;;-145.18;100.00;46599.84;6181276;23;20020;-85
2022/09/27 13:03:47;;;;;;;;;;;;;;;-145.18;100.00;46609.59;6181808;23;20017;-85
2022/09/27 13:06:39;;;;;;;1.80;0.83;;;;;;;-145.18;100.00;46636.94;6181792;23;19912;-85
2022/09/27 13:09:29;;;;;;;1.53;0.53;;;;;;;-145.18;100.00;47058.91;6182107;23;20032;-85
2022/09/27 13:11:59;;;;;;;1.37;0.60;;;;;;;-145.18;100.00;47168.28;6184280;23;20005;-85
2022/09/27 13:14:31;;;;;;;1.87;0.60;;;;;;;-145.18;100.00;47191.75;6183850;23;20009;-84
2022/09/27 13:16:57;;;;;;;2.00;0.87;;;;;;;-145.18;100.00;47205.41;6183882;23;20453;-85
2022/09/27 13:19:34;;;;;;;3.17;1.00;;;;;;;-145.18;100.00;47023.72;6155262;23;20005;-85
2022/09/27 13:22:02;;;;;;;2.60;0.70;;;;;;;-145.18;100.00;47076.47;6182763;23;20063;-86
2022/09/27 13:24:40;;;;;;;4.57;0.93;;;;;;;-145.18;100.00;47119.47;6180520;23;20032;-86
2022/09/27 13:27:28;;;;;;;1.20;0.60;;;;;;;-145.18;100.00;47281.59;6181065;23;20001;-85
2022/09/27 13:30:15;;;;;;;5.90;1.47;;;;;;;-145.18;100.00;47338.25;6150516;23;20430;-84
2022/09/27 13:33:09;;;;;;;7.70;1.23;;;;;;;-145.18;100.00;47396.88;6183289;23;20449;-85
2022/09/27 13:35:35;;;;;;;3.77;0.90;;;;;;;-145.18;100.00;47410.56;6182934;23;20005;-85
2022/09/27 13:38:01;;;;;;;7.07;1.27;;;;;;;-145.18;100.00;47277.69;6183429;23;20132;-84
2022/09/27 13:40:35;;;;;;;6.57;0.80;;;;;;;-145.18;100.00;47004.19;6157019;23;20013;-84